createdAt,value
2023-02-17T00:00:55.616Z,40.50
2023-02-17T00:03:23.759Z,36.23
2023-02-17T00:05:53.147Z,42.60
2023-02-17T00:08:21.157Z,40.53
2023-02-17T00:10:59.040Z,40.43
2023-02-17T00:13:27.278Z,41.53
2023-02-17T00:15:55.400Z,38.43
2023-02-17T00:18:23.952Z,39.50
2023-02-17T00:20:53.245Z,38.70
2023-02-17T00:23:21.127Z,38.83
2023-02-17T00:25:49.059Z,38.33
2023-02-17T00:28:17.016Z,38.83
2023-02-17T00:30:44.948Z,38.47
2023-02-17T00:33:12.840Z,33.50
2023-02-17T00:35:42.666Z,37.97
2023-02-17T00:38:11.969Z,36.47
2023-02-17T00:40:39.992Z,34.00
2023-02-17T00:43:07.903Z,35.93
2023-02-17T00:45:35.773Z,33.57
2023-02-17T00:48:03.713Z,34.17
2023-02-17T00:50:31.639Z,34.87
2023-02-17T00:52:59.563Z,31.33
2023-02-17T00:55:29.077Z,35.17
2023-02-17T00:57:56.983Z,30.17
2023-02-17T01:00:25.069Z,31.40
2023-02-17T01:02:52.998Z,35.47
2023-02-17T01:05:21.087Z,35.57
2023-02-17T01:07:49.168Z,29.53
2023-02-17T01:10:17.225Z,29.03
2023-02-17T01:12:46.508Z,29.57
2023-02-17T01:15:14.591Z,30.40
2023-02-17T01:17:42.655Z,33.50
2023-02-17T01:20:11.040Z,31.73
2023-02-17T01:22:39.926Z,32.03
2023-02-17T01:25:08.440Z,32.13
2023-02-17T01:27:36.579Z,29.90
2023-02-17T01:30:06.852Z,29.73
2023-02-17T01:32:34.789Z,31.37
2023-02-17T01:35:02.712Z,32.40
2023-02-17T01:37:30.591Z,30.47
2023-02-17T01:39:58.490Z,31.23
2023-02-17T01:42:26.698Z,30.10
2023-02-17T01:45:31.627Z,27.37
2023-02-17T01:48:01.780Z,27.50
2023-02-17T01:50:33.218Z,27.57
2023-02-17T01:53:01.479Z,26.97
2023-02-17T01:55:30.299Z,27.77
2023-02-17T01:57:59.519Z,25.40
2023-02-17T02:00:30.161Z,26.90
2023-02-17T02:02:58.528Z,28.07
2023-02-17T02:05:26.483Z,27.83
2023-02-17T02:07:55.159Z,25.30
2023-02-17T02:10:23.096Z,25.73
2023-02-17T02:12:51.001Z,27.10
2023-02-17T02:15:21.430Z,22.80
2023-02-17T02:18:03.224Z,22.60
2023-02-17T02:21:04.845Z,24.53
2023-02-17T02:24:04.789Z,23.53
2023-02-17T02:26:51.186Z,22.50
2023-02-17T02:29:46.324Z,23.43
2023-02-17T02:32:29.085Z,18.83
2023-02-17T02:35:02.282Z,23.70
2023-02-17T02:37:35.133Z,20.57
2023-02-17T02:40:06.131Z,18.67
2023-02-17T02:42:34.275Z,23.37
2023-02-17T02:45:02.239Z,17.50
2023-02-17T02:47:43.698Z,21.77
2023-02-17T02:50:14.021Z,18.90
2023-02-17T02:52:50.113Z,17.57
2023-02-17T02:55:22.739Z,21.63
2023-02-17T02:57:54.844Z,21.70
2023-02-17T03:00:26.944Z,18.63
2023-02-17T03:03:00.051Z,20.53
2023-02-17T03:05:33.216Z,22.30
2023-02-17T03:08:04.333Z,20.03
2023-02-17T03:10:32.383Z,19.73
2023-02-17T03:13:02.823Z,20.60
2023-02-17T03:15:33.284Z,20.10
2023-02-17T03:18:03.685Z,21.37
2023-02-17T03:20:34.252Z,19.00
2023-02-17T03:23:02.151Z,16.70
2023-02-17T03:25:30.158Z,17.77
2023-02-17T03:27:58.259Z,16.67
2023-02-17T03:30:26.190Z,20.90
2023-02-17T03:32:54.137Z,16.33
2023-02-17T03:35:23.485Z,17.03
2023-02-17T03:37:51.363Z,16.20
2023-02-17T03:40:19.511Z,13.90
2023-02-17T03:42:47.431Z,16.13
2023-02-17T03:45:15.400Z,17.13
2023-02-17T03:47:43.315Z,15.43
2023-02-17T03:50:11.844Z,17.43
2023-02-17T03:52:41.149Z,19.87
2023-02-17T03:55:09.332Z,14.80
2023-02-17T03:57:37.241Z,18.07
2023-02-17T04:00:05.662Z,17.77
2023-02-17T04:02:33.601Z,15.53
2023-02-17T04:05:01.500Z,21.67
2023-02-17T04:07:29.579Z,20.10
2023-02-17T04:09:58.846Z,23.47
2023-02-17T04:12:26.852Z,15.73
2023-02-17T04:14:54.850Z,23.77
2023-02-17T04:17:22.743Z,18.87
2023-02-17T04:19:50.668Z,18.20
2023-02-17T04:22:18.585Z,20.83
2023-02-17T04:24:46.527Z,21.10
2023-02-17T04:27:15.879Z,20.77
2023-02-17T04:29:44.008Z,20.80
2023-02-17T04:32:11.937Z,25.23
2023-02-17T04:34:39.923Z,22.03
2023-02-17T04:37:07.963Z,23.03
2023-02-17T04:39:35.882Z,22.37
2023-02-17T04:42:03.824Z,20.47
2023-02-17T04:44:33.220Z,22.00
2023-02-17T04:47:01.132Z,23.07
2023-02-17T04:49:29.037Z,25.00
2023-02-17T04:51:56.947Z,23.13
2023-02-17T04:54:24.857Z,24.77
2023-02-17T04:56:52.848Z,23.13
2023-02-17T04:59:20.757Z,27.17
2023-02-17T05:01:50.153Z,24.43
2023-02-17T05:04:18.090Z,27.60
2023-02-17T05:06:46.024Z,30.37
2023-02-17T05:09:13.933Z,24.77
2023-02-17T05:11:41.819Z,26.27
2023-02-17T05:14:09.732Z,27.50
2023-02-17T05:16:37.843Z,28.63
2023-02-17T05:19:07.484Z,23.17
2023-02-17T05:21:35.500Z,30.37
2023-02-17T05:24:03.581Z,27.33
2023-02-17T05:26:31.575Z,29.20
2023-02-17T05:28:59.500Z,32.40
2023-02-17T05:31:27.563Z,32.20
2023-02-17T05:33:55.725Z,33.13
2023-02-17T05:36:25.042Z,34.57
2023-02-17T05:38:52.938Z,34.57
2023-02-17T05:41:21.007Z,47.80
2023-02-17T05:43:49.467Z,89.80
2023-02-17T05:46:17.571Z,127.10
2023-02-17T05:48:46.032Z,142.07
2023-02-17T05:51:17.216Z,59.43
2023-02-17T05:53:46.569Z,47.43
2023-02-17T05:56:14.472Z,39.03
2023-02-17T05:58:42.404Z,38.77
2023-02-17T06:01:10.785Z,33.00
2023-02-17T06:03:38.739Z,37.37
2023-02-17T06:06:07.706Z,34.13
2023-02-17T06:08:36.014Z,32.23
2023-02-17T06:11:05.698Z,38.10
2023-02-17T06:13:33.610Z,36.13
2023-02-17T06:16:01.725Z,38.30
2023-02-17T06:18:29.698Z,42.23
2023-02-17T06:20:57.791Z,40.67
2023-02-17T06:23:25.835Z,37.80
2023-02-17T06:25:54.180Z,41.63
2023-02-17T06:28:23.505Z,35.67
2023-02-17T06:30:51.459Z,40.10
2023-02-17T06:33:19.403Z,39.37
2023-02-17T06:35:50.125Z,37.93
2023-02-17T06:38:18.272Z,36.87
2023-02-17T06:40:46.248Z,35.20
2023-02-17T06:43:14.223Z,35.37
2023-02-17T06:45:43.572Z,40.83
2023-02-17T06:48:11.497Z,42.90
2023-02-17T06:50:39.738Z,41.33
2023-02-17T06:53:07.683Z,35.50
2023-02-17T06:55:37.325Z,39.60
2023-02-17T06:58:05.256Z,39.63
2023-02-17T07:00:33.183Z,35.93
2023-02-17T07:03:02.542Z,35.53
2023-02-17T07:05:30.582Z,36.83
2023-02-17T07:07:58.917Z,36.77
2023-02-17T07:10:26.862Z,37.97
2023-02-17T07:12:54.850Z,38.77
2023-02-17T07:15:22.849Z,36.63
2023-02-17T07:17:50.772Z,35.77
2023-02-17T07:20:20.356Z,41.17
2023-02-17T07:22:48.262Z,32.47
2023-02-17T07:25:16.236Z,35.77
2023-02-17T07:27:44.175Z,35.90
2023-02-17T07:30:12.872Z,31.77
2023-02-17T07:32:40.833Z,36.37
2023-02-17T07:35:09.096Z,33.23
2023-02-17T07:37:38.367Z,30.33
2023-02-17T07:40:07.816Z,32.30
2023-02-17T07:42:35.763Z,32.97
2023-02-17T07:45:03.692Z,31.27
2023-02-17T07:47:33.049Z,33.70
2023-02-17T07:50:01.041Z,28.87
2023-02-17T07:52:28.964Z,28.60
2023-02-17T07:54:58.300Z,31.30
2023-02-17T07:57:26.372Z,29.53
2023-02-17T07:59:54.276Z,29.00
2023-02-17T08:02:22.344Z,31.37
2023-02-17T08:04:50.322Z,29.30
2023-02-17T08:07:18.405Z,27.53
2023-02-17T08:10:03.681Z,26.27
2023-02-17T08:13:02.153Z,20.83
2023-02-17T08:15:34.076Z,22.43
2023-02-17T08:18:02.381Z,20.47
2023-02-17T08:20:30.373Z,21.67
2023-02-17T08:22:58.286Z,23.27
2023-02-17T08:25:26.200Z,23.27
2023-02-17T08:27:55.719Z,24.50
2023-02-17T08:30:23.638Z,24.57
2023-02-17T08:32:51.588Z,23.33
2023-02-17T08:35:22.503Z,24.00
2023-02-17T08:37:50.538Z,17.57
2023-02-17T08:40:19.531Z,21.27
2023-02-17T08:42:48.337Z,16.97
2023-02-17T08:45:18.287Z,20.57
2023-02-17T08:47:46.220Z,22.80
2023-02-17T08:50:16.523Z,27.07
2023-02-17T08:52:44.484Z,28.67
2023-02-17T08:55:12.709Z,21.57
2023-02-17T08:57:40.956Z,25.30
2023-02-17T09:00:10.499Z,24.97
2023-02-17T09:02:42.738Z,24.27
2023-02-17T09:05:12.974Z,26.73
2023-02-17T09:07:41.299Z,26.00
2023-02-17T09:10:11.096Z,29.43
2023-02-17T09:12:39.033Z,26.70
2023-02-17T09:15:07.847Z,32.87
2023-02-17T09:17:36.002Z,25.70
2023-02-17T09:20:16.280Z,30.07
2023-02-17T09:22:51.529Z,27.87
2023-02-17T09:25:20.419Z,25.90
2023-02-17T09:27:48.342Z,32.73
2023-02-17T09:30:16.461Z,34.03
2023-02-17T09:32:44.688Z,30.90
2023-02-17T09:35:14.615Z,31.27
2023-02-17T09:37:42.546Z,27.30
2023-02-17T09:40:15.903Z,28.40
2023-02-17T09:42:43.863Z,26.57
2023-02-17T09:45:13.910Z,24.13
2023-02-17T09:47:44.982Z,27.80
2023-02-17T09:50:17.478Z,24.80
2023-02-17T09:52:52.606Z,22.50
2023-02-17T09:55:25.799Z,25.83
2023-02-17T09:57:58.206Z,26.93
2023-02-17T10:00:28.289Z,26.30
2023-02-17T10:03:00.501Z,23.93
2023-02-17T10:05:36.381Z,26.37
2023-02-17T10:08:10.058Z,27.07
2023-02-17T10:10:41.599Z,24.47
2023-02-17T10:13:11.030Z,26.63
2023-02-17T10:15:41.932Z,23.17
2023-02-17T10:18:13.302Z,34.50
2023-02-17T10:20:43.913Z,24.80
2023-02-17T10:23:15.469Z,25.37
2023-02-17T10:25:56.010Z,26.80
2023-02-17T10:28:29.208Z,24.87
2023-02-17T10:31:03.108Z,25.03
2023-02-17T10:33:36.917Z,23.27
2023-02-17T10:36:13.294Z,21.33
2023-02-17T10:38:50.681Z,21.23
2023-02-17T10:41:22.955Z,22.73
2023-02-17T10:43:51.348Z,19.10
2023-02-17T10:46:21.977Z,24.90
2023-02-17T10:48:51.850Z,22.27
2023-02-17T10:51:24.401Z,21.10
2023-02-17T10:53:55.544Z,21.93
2023-02-17T10:56:27.351Z,20.30
2023-02-17T10:58:58.226Z,20.23
2023-02-17T11:01:26.583Z,22.37
2023-02-17T11:04:02.706Z,24.50
2023-02-17T11:06:39.412Z,22.93
2023-02-17T11:09:13.961Z,27.23
2023-02-17T11:11:51.793Z,21.43
2023-02-17T11:14:22.798Z,25.33
2023-02-17T11:16:57.102Z,23.97
2023-02-17T11:19:27.867Z,21.23
2023-02-17T11:21:59.835Z,26.00
2023-02-17T11:24:28.137Z,22.57
2023-02-17T11:27:00.984Z,20.87
2023-02-17T11:29:29.517Z,23.67
2023-02-17T11:32:00.957Z,23.43
2023-02-17T11:34:30.949Z,26.47
2023-02-17T11:37:02.629Z,21.87
2023-02-17T11:39:31.032Z,23.00
2023-02-17T11:41:58.988Z,25.33
2023-02-17T11:44:28.211Z,23.50
2023-02-17T11:47:07.095Z,24.90
2023-02-17T11:49:46.844Z,22.07
2023-02-17T11:52:24.224Z,21.47
2023-02-17T11:55:01.456Z,21.27
2023-02-17T11:57:37.882Z,20.83
2023-02-17T12:00:17.672Z,23.47
2023-02-17T12:03:12.426Z,21.20
2023-02-17T12:05:54.707Z,21.03
2023-02-17T12:08:29.282Z,19.83
2023-02-17T12:11:05.936Z,21.87
2023-02-17T12:13:43.896Z,19.47
2023-02-17T12:16:21.143Z,16.30
2023-02-17T12:19:00.731Z,22.87
2023-02-17T12:21:48.261Z,17.37
2023-02-17T12:24:39.310Z,19.67
2023-02-17T12:27:13.029Z,14.07
2023-02-17T12:29:56.729Z,19.07
2023-02-17T12:32:35.160Z,13.40
2023-02-17T12:35:11.665Z,17.70
2023-02-17T12:37:48.409Z,15.73
2023-02-17T12:40:32.664Z,12.50
2023-02-17T12:43:04.068Z,12.90
2023-02-17T12:45:38.779Z,13.10
2023-02-17T12:48:11.045Z,10.00
2023-02-17T12:50:43.041Z,14.23
2023-02-17T12:53:14.532Z,12.83
2023-02-17T12:55:48.495Z,12.73
2023-02-17T12:58:18.787Z,14.93
2023-02-17T13:00:48.561Z,9.80
2023-02-17T13:03:16.557Z,13.00
2023-02-17T13:05:49.316Z,9.57
2023-02-17T13:08:20.737Z,7.50
2023-02-17T13:11:04.202Z,10.37
2023-02-17T13:13:33.945Z,9.83
2023-02-17T13:16:04.746Z,10.37
2023-02-17T13:18:34.693Z,9.43
2023-02-17T13:21:05.577Z,14.63
2023-02-17T13:23:36.977Z,13.57
2023-02-17T13:26:36.758Z,13.43
2023-02-17T13:29:11.284Z,11.70
2023-02-17T13:31:52.250Z,8.23
2023-02-17T13:34:29.958Z,13.07
2023-02-17T13:36:58.648Z,9.13
2023-02-17T13:39:35.476Z,8.23
2023-02-17T13:42:06.084Z,14.50
2023-02-17T13:44:35.478Z,16.90
2023-02-17T13:47:05.115Z,12.83
2023-02-17T13:49:35.251Z,11.63
2023-02-17T13:52:18.597Z,9.83
2023-02-17T13:54:53.679Z,8.03
2023-02-17T13:57:27.798Z,11.43
2023-02-17T14:00:10.427Z,7.77
2023-02-17T14:02:39.208Z,7.17
2023-02-17T14:05:18.714Z,8.27
2023-02-17T14:07:48.362Z,10.33
2023-02-17T14:10:25.205Z,6.70
2023-02-17T14:12:55.492Z,8.43
2023-02-17T14:15:25.286Z,7.50
2023-02-17T14:17:53.498Z,7.10
2023-02-17T14:20:34.986Z,10.70
2023-02-17T14:23:05.706Z,6.70
2023-02-17T14:25:36.045Z,5.93
2023-02-17T14:28:06.165Z,7.93
2023-02-17T14:30:36.823Z,7.43
2023-02-17T14:33:09.829Z,4.17
2023-02-17T14:35:39.436Z,9.50
2023-02-17T14:38:20.981Z,6.37
2023-02-17T14:40:49.085Z,4.47
2023-02-17T14:43:18.418Z,6.37
2023-02-17T14:45:46.473Z,7.47
2023-02-17T14:48:14.827Z,4.30
2023-02-17T14:50:44.256Z,7.17
2023-02-17T14:53:14.831Z,6.67
2023-02-17T14:55:46.282Z,1.97
2023-02-17T14:58:17.636Z,6.57
2023-02-17T15:00:47.069Z,5.37
2023-02-17T15:03:15.573Z,5.77
2023-02-17T15:05:44.072Z,7.43
2023-02-17T15:08:14.432Z,7.33
2023-02-17T15:10:42.375Z,7.53
2023-02-17T15:13:15.128Z,7.90
2023-02-17T15:15:45.047Z,10.57
2023-02-17T15:18:15.219Z,9.13
2023-02-17T15:20:45.501Z,10.67
2023-02-17T15:23:14.567Z,9.33
2023-02-17T15:25:42.569Z,8.60
2023-02-17T15:28:13.787Z,10.70
2023-02-17T15:30:41.806Z,10.70
2023-02-17T15:33:14.257Z,8.53
2023-02-17T15:35:43.175Z,12.73
2023-02-17T15:38:12.802Z,14.50
2023-02-17T15:40:41.189Z,11.00
2023-02-17T15:43:12.383Z,15.03
2023-02-17T15:45:40.299Z,12.17
2023-02-17T15:48:12.035Z,10.60
2023-02-17T15:50:41.338Z,15.53
2023-02-17T15:53:09.309Z,8.13
2023-02-17T15:55:37.285Z,10.33
2023-02-17T15:58:06.062Z,12.20
2023-02-17T16:00:36.758Z,10.33
2023-02-17T16:03:04.926Z,9.17
2023-02-17T16:05:33.661Z,10.63
2023-02-17T16:08:02.948Z,7.77
2023-02-17T16:10:31.110Z,11.60
2023-02-17T16:12:59.640Z,13.73
2023-02-17T16:15:29.384Z,11.80
2023-02-17T16:17:57.772Z,13.90
2023-02-17T16:20:27.547Z,19.60
2023-02-17T16:22:55.485Z,10.90
2023-02-17T16:25:24.886Z,11.43
2023-02-17T16:27:53.764Z,14.80
2023-02-17T16:30:24.173Z,12.70
2023-02-17T16:32:52.784Z,15.00
2023-02-17T16:35:23.016Z,13.87
2023-02-17T16:37:54.332Z,8.83
2023-02-17T16:40:25.674Z,14.47
2023-02-17T16:42:53.733Z,14.03
2023-02-17T16:45:24.029Z,9.97
2023-02-17T16:47:56.600Z,14.27
2023-02-17T16:50:26.892Z,13.47
2023-02-17T16:52:56.576Z,12.80
2023-02-17T16:55:28.714Z,11.33
2023-02-17T16:57:57.349Z,8.33
2023-02-17T17:00:29.792Z,12.37
2023-02-17T17:02:58.151Z,11.73
2023-02-17T17:05:27.938Z,8.40
2023-02-17T17:07:56.240Z,7.33
2023-02-17T17:10:27.073Z,14.17
2023-02-17T17:12:55.349Z,18.50
2023-02-17T17:15:23.441Z,11.63
2023-02-17T17:17:53.903Z,11.13
2023-02-17T17:20:26.922Z,13.30
2023-02-17T17:22:55.050Z,15.17
2023-02-17T17:25:22.987Z,14.13
2023-02-17T17:27:52.304Z,15.30
2023-02-17T17:30:22.042Z,8.17
2023-02-17T17:32:50.201Z,12.27
2023-02-17T17:35:18.749Z,10.80
2023-02-17T17:37:49.750Z,17.27
2023-02-17T17:40:19.791Z,17.90
2023-02-17T17:42:47.701Z,20.47
2023-02-17T17:45:17.375Z,6.77
2023-02-17T17:47:45.790Z,16.20
2023-02-17T17:50:17.291Z,18.30
2023-02-17T17:52:45.480Z,12.93
2023-02-17T17:55:13.842Z,13.30
2023-02-17T17:57:42.509Z,16.70
2023-02-17T18:00:14.229Z,11.83
2023-02-17T18:02:43.785Z,12.97
2023-02-17T18:05:12.337Z,13.57
2023-02-17T18:07:41.632Z,12.27
2023-02-17T18:10:11.519Z,10.90
2023-02-17T18:12:39.913Z,11.77
2023-02-17T18:15:08.776Z,9.63
2023-02-17T18:17:38.714Z,13.43
2023-02-17T18:20:10.778Z,8.43
2023-02-17T18:22:38.911Z,10.30
2023-02-17T18:25:07.168Z,11.13
2023-02-17T18:27:39.943Z,10.23
2023-02-17T18:30:09.411Z,9.83
2023-02-17T18:32:37.332Z,6.43
2023-02-17T18:35:05.746Z,12.67
2023-02-17T18:37:35.421Z,9.27
2023-02-17T18:40:03.966Z,9.43
2023-02-17T18:42:32.240Z,9.80
2023-02-17T18:45:00.129Z,10.37
2023-02-17T18:47:28.115Z,9.80
2023-02-17T18:49:56.187Z,5.93
2023-02-17T18:52:24.296Z,14.80
2023-02-17T18:54:53.918Z,19.87
2023-02-17T18:57:22.083Z,9.17
2023-02-17T18:59:50.534Z,9.70
2023-02-17T19:02:19.413Z,19.27
2023-02-17T19:04:47.312Z,14.83
2023-02-17T19:07:15.292Z,9.63
2023-02-17T19:09:43.525Z,14.50
2023-02-17T19:12:13.666Z,10.13
2023-02-17T19:14:42.135Z,11.03
2023-02-17T19:17:10.570Z,9.10
2023-02-17T19:19:38.604Z,10.27
2023-02-17T19:22:08.715Z,12.73
2023-02-17T19:24:36.790Z,13.47
2023-02-17T19:27:05.020Z,16.63
2023-02-17T19:29:34.634Z,12.23
2023-02-17T19:32:04.502Z,10.97
2023-02-17T19:34:32.577Z,9.23
2023-02-17T19:37:00.729Z,12.37
2023-02-17T19:39:28.837Z,11.30
2023-02-17T19:41:56.731Z,14.27
2023-02-17T19:44:24.722Z,12.07
2023-02-17T19:46:54.300Z,15.80
2023-02-17T19:49:22.560Z,15.50
2023-02-17T19:51:50.939Z,11.60
2023-02-17T19:54:18.967Z,10.40
2023-02-17T19:56:48.927Z,13.00
2023-02-17T19:59:16.976Z,18.70
2023-02-17T20:01:45.161Z,8.83
2023-02-17T20:04:14.737Z,7.50
2023-02-17T20:06:45.634Z,11.53
2023-02-17T20:09:16.877Z,14.53
2023-02-17T20:11:45.861Z,11.27
2023-02-17T20:14:16.959Z,11.70
2023-02-17T20:16:44.906Z,10.97
2023-02-17T20:19:14.454Z,17.97
2023-02-17T20:21:44.849Z,15.10
2023-02-17T20:24:14.223Z,12.03
2023-02-17T20:26:44.846Z,24.07
2023-02-17T20:29:13.778Z,15.80
2023-02-17T20:31:42.884Z,15.20
2023-02-17T20:34:28.256Z,9.67
2023-02-17T20:36:56.388Z,15.87
2023-02-17T20:39:25.922Z,14.17
2023-02-17T20:41:54.519Z,8.70
2023-02-17T20:44:23.719Z,10.37
2023-02-17T20:46:53.343Z,6.10
2023-02-17T20:49:22.275Z,14.93
2023-02-17T20:51:53.941Z,13.83
2023-02-17T20:54:24.685Z,11.60
2023-02-17T20:56:53.030Z,11.40
2023-02-17T20:59:21.463Z,13.00
2023-02-17T21:01:49.955Z,10.10
2023-02-17T21:04:18.720Z,13.97
2023-02-17T21:06:47.538Z,9.30
2023-02-17T21:09:18.681Z,14.43
2023-02-17T21:11:47.910Z,15.00
2023-02-17T21:14:16.279Z,15.60
2023-02-17T21:16:47.532Z,14.07
2023-02-17T21:19:15.699Z,10.03
2023-02-17T21:21:43.801Z,13.73
2023-02-17T21:24:12.035Z,15.57
2023-02-17T21:26:42.582Z,14.57
2023-02-17T21:29:10.525Z,6.63
2023-02-17T21:31:38.499Z,19.87
2023-02-17T21:34:07.251Z,16.70
2023-02-17T21:36:35.192Z,9.73
2023-02-17T21:39:04.265Z,9.17
2023-02-17T21:41:33.314Z,16.63
2023-02-17T21:44:20.627Z,7.77
2023-02-17T21:46:48.561Z,10.23
2023-02-17T21:49:16.738Z,13.50
2023-02-17T21:51:45.062Z,7.87
2023-02-17T21:54:13.114Z,14.63
2023-02-17T21:56:41.278Z,12.03
2023-02-17T21:59:10.650Z,17.60
2023-02-17T22:01:38.752Z,18.93
2023-02-17T22:04:06.811Z,21.53
2023-02-17T22:06:36.966Z,8.37
2023-02-17T22:09:06.812Z,9.93
2023-02-17T22:11:36.752Z,14.77
2023-02-17T22:14:07.686Z,13.57
2023-02-17T22:16:37.760Z,8.87
2023-02-17T22:19:07.220Z,9.90
2023-02-17T22:21:36.460Z,9.93
2023-02-17T22:24:04.447Z,13.60
2023-02-17T22:26:33.122Z,15.77
2023-02-17T22:29:01.041Z,16.33
2023-02-17T22:31:31.083Z,10.67
2023-02-17T22:34:02.514Z,10.07
2023-02-17T22:36:33.100Z,10.07
2023-02-17T22:39:01.186Z,9.83
2023-02-17T22:41:29.447Z,11.47
2023-02-17T22:43:57.634Z,13.33
2023-02-17T22:46:27.314Z,16.50
2023-02-17T22:48:57.890Z,10.40
2023-02-17T22:51:29.158Z,7.83
2023-02-17T22:53:57.094Z,10.50
2023-02-17T22:56:25.246Z,14.13
2023-02-17T22:58:56.515Z,13.87
2023-02-17T23:01:25.418Z,8.13
2023-02-17T23:03:54.696Z,8.70
2023-02-17T23:06:26.401Z,9.53
2023-02-17T23:08:56.148Z,13.43
2023-02-17T23:11:45.902Z,11.93
2023-02-17T23:14:14.671Z,8.60
2023-02-17T23:16:43.120Z,8.80
2023-02-17T23:19:16.477Z,7.30
2023-02-17T23:21:45.318Z,7.90
2023-02-17T23:24:16.480Z,14.97
2023-02-17T23:26:44.921Z,11.97
2023-02-17T23:29:12.861Z,10.30
2023-02-17T23:31:40.938Z,12.30
2023-02-17T23:34:12.022Z,14.00
2023-02-17T23:36:40.505Z,11.50
2023-02-17T23:39:08.840Z,7.67
2023-02-17T23:41:38.512Z,10.53
2023-02-17T23:44:09.576Z,11.37
2023-02-17T23:46:37.781Z,9.83
2023-02-17T23:49:06.092Z,9.67
2023-02-17T23:51:34.309Z,12.70
2023-02-17T23:54:04.582Z,9.30
2023-02-17T23:56:34.620Z,14.13
2023-02-17T23:59:04.171Z,17.57
